Beach Haven, NJ

1:35 AM EDT on March 23, 2017 (GMT -0400)
beach haven nj | | Change Station

Elev 0 ft 39.57 °N, 74.25 °W | Updated 5 seconds ago

Clear
Clear
27.1 °F
Feels Like 12 °F
N
24.6
Wind Variable Wind from NW
Gusts 30.0 mph

Today
High -- | Low -- °F
--% Chance of Precip.
Yesterday
High -- | Low -- °F
Precip. -- in
Pressure 30.49 in
Visibility 10.0 miles
Clouds Clear
Windchill 12 °F
Dew Point -1 °F
Humidity 29%
Rainfall 0.00 in
Snow Depth Not available.
6:55 AM 7:12 PM
Waning Crescent, 26% visible
METAR KACY 230454Z 34009KT 10SM CLR M04/M19 A3048 RMK AO2 SLP323 T10391194 400941039
Pressure 30.49 in
Visibility 10.0 miles
Clouds Clear
Windchill 12 °F
Dew Point -1 °F
Humidity 29%
Rainfall 0.00 in
Snow Depth Not available.
6:55 AM 7:12 PM
Waning Crescent, 26% visible
METAR KACY 230454Z 34009KT 10SM CLR M04/M19 A3048 RMK AO2 SLP323 T10391194 400941039

Get Severe Weather Alerts

Thanks for signing up!

Be on the lookout for a verification email in your inbox.

You'll start receiving the daily forecast at 8 AM.

×

10-Day Weather Forecast

Almanac

Astronomy

Mar. 23, 2017 Rise Set
Actual Time
Civil Twilight
Nautical Twilight
Astronomical Twilight
Moon
Length of Visible Light
Length of Day
Tomorrow will be .
, % of the Moon is Illuminated

Today's Extremes

State Highs State Lows

Community

WunderPhotos

Upload Photos

1,962,540 photos uploaded!

WunderBlog® & News

Nearby

Air Quality

  Air Quality AQ Index Pollutant
Not available.

Snow Depth

Station Depth Elevation

Earthquake Activity

City Distance Mag. Time & Date
Minimum magnitude displayed is 2.5.

Earthquake Activity

City Distance Mag. Time & Date
Minimum magnitude displayed is 2.5.

Coastal Water Temperatures

Place Temperature

Stations

Nearby Weather Stations

Station Location Temp. Windchill Dew Point Humidity Wind Precip. Elev Updated Type
                   

Watches & Warnings

There are currently no watches in effect.